RYR38CD LEMI-EGHH
Flight info
| Callsign | RYR38CD |
|---|---|
| Flight time | 2h 15m |
| Altitude | 36000 |
| Route | ALT N851 MITOS N608 COMPI Y90 USKAR/N0437F380 DCT MOPAS DCT GIROM DCT AGN DCT SECHE DCT UVELI DCT CNA DCT MANAK UY110 ORIST Y110 THRED |
| Aircraft | B738/M-SDE3FGILRWY/SB1 |
Departure
| Time | 2026-04-21 10:03 |
|---|---|
| Airport | Region of Murcia International Airport (LEMI) |
Arrival
| Time | 2026-04-21 12:18 |
|---|---|
| Airport | Bournemouth Airport (EGHH) |
| Time | Latitude | Longitude | Altitude | Speed | Heading |
|---|---|---|---|---|---|
| 2026-04-21 09:45 | 37.80354 | -1.13124 | 648 ft | 0 kts | 315° |
| 2026-04-21 09:52 | 37.80352 | -1.13121 | 646 ft | 3 kts | 316° |
| 2026-04-21 09:53 | 37.80331 | -1.13102 | 646 ft | 4 kts | 334° |
| 2026-04-21 09:53 | 37.80309 | -1.13086 | 647 ft | 4 kts | 332° |
| 2026-04-21 09:53 | 37.80285 | -1.13079 | 648 ft | 4 kts | 21° |
| 2026-04-21 09:53 | 37.80268 | -1.13092 | 648 ft | 0 kts | 45° |
| 2026-04-21 09:55 | 37.80270 | -1.13090 | 646 ft | 1 kts | 45° |
| 2026-04-21 09:55 | 37.80286 | -1.13070 | 646 ft | 5 kts | 45° |
| 2026-04-21 09:56 | 37.80322 | -1.13024 | 647 ft | 9 kts | 45° |
| 2026-04-21 09:56 | 37.80371 | -1.12960 | 646 ft | 10 kts | 45° |
| 2026-04-21 09:56 | 37.80421 | -1.12897 | 647 ft | 10 kts | 45° |
| 2026-04-21 09:56 | 37.80459 | -1.12827 | 648 ft | 10 kts | 82° |
| 2026-04-21 09:57 | 37.80426 | -1.12757 | 647 ft | 9 kts | 134° |
| 2026-04-21 09:57 | 37.80398 | -1.12687 | 648 ft | 9 kts | 81° |
| 2026-04-21 09:57 | 37.80436 | -1.12624 | 649 ft | 9 kts | 45° |
| 2026-04-21 09:57 | 37.80483 | -1.12564 | 649 ft | 11 kts | 45° |
| 2026-04-21 09:58 | 37.80542 | -1.12488 | 649 ft | 13 kts | 45° |
| 2026-04-21 09:58 | 37.80612 | -1.12397 | 650 ft | 15 kts | 45° |
| 2026-04-21 09:58 | 37.80685 | -1.12303 | 650 ft | 16 kts | 45° |
| 2026-04-21 09:58 | 37.80771 | -1.12192 | 649 ft | 20 kts | 45° |
| 2026-04-21 09:59 | 37.80869 | -1.12067 | 648 ft | 20 kts | 45° |
| 2026-04-21 09:59 | 37.80964 | -1.11946 | 647 ft | 19 kts | 45° |
| 2026-04-21 09:59 | 37.81055 | -1.11828 | 649 ft | 18 kts | 45° |
| 2026-04-21 09:59 | 37.81143 | -1.11714 | 650 ft | 18 kts | 45° |
| 2026-04-21 10:00 | 37.81227 | -1.11605 | 653 ft | 17 kts | 45° |
| 2026-04-21 10:00 | 37.81310 | -1.11499 | 651 ft | 17 kts | 45° |
| 2026-04-21 10:00 | 37.81337 | -1.11389 | 649 ft | 14 kts | 124° |
| 2026-04-21 10:00 | 37.81266 | -1.11303 | 647 ft | 14 kts | 143° |
| 2026-04-21 10:01 | 37.81197 | -1.11334 | 649 ft | 15 kts | 224° |
| 2026-04-21 10:02 | 37.81007 | -1.11579 | 645 ft | 68 kts | 225° |
| 2026-04-21 10:02 | 37.80507 | -1.12220 | 647 ft | 133 kts | 226° |
| 2026-04-21 10:02 | 37.79736 | -1.13217 | 764 ft | 175 kts | 225° |
| 2026-04-21 10:03 | 37.78899 | -1.14287 | 1624 ft | 167 kts | 220° |
| 2026-04-21 10:03 | 37.77949 | -1.15200 | 2324 ft | 174 kts | 215° |
| 2026-04-21 10:03 | 37.76897 | -1.16149 | 2686 ft | 201 kts | 214° |
| 2026-04-21 10:03 | 37.75686 | -1.17223 | 2914 ft | 224 kts | 214° |
| 2026-04-21 10:04 | 37.74356 | -1.18404 | 3203 ft | 241 kts | 214° |
| 2026-04-21 10:04 | 37.72960 | -1.19651 | 3627 ft | 252 kts | 216° |
| 2026-04-21 10:04 | 37.71606 | -1.21115 | 4186 ft | 260 kts | 222° |
| 2026-04-21 10:04 | 37.70276 | -1.22680 | 5022 ft | 261 kts | 222° |
| 2026-04-21 10:05 | 37.68944 | -1.24236 | 5873 ft | 261 kts | 221° |
| 2026-04-21 10:05 | 37.67598 | -1.25792 | 6645 ft | 264 kts | 221° |
| 2026-04-21 10:05 | 37.66292 | -1.27449 | 7372 ft | 269 kts | 234° |
| 2026-04-21 10:05 | 37.65645 | -1.29670 | 8038 ft | 276 kts | 264° |
| 2026-04-21 10:06 | 37.65884 | -1.32073 | 8416 ft | 282 kts | 290° |
| 2026-04-21 10:06 | 37.66976 | -1.34085 | 8518 ft | 281 kts | 320° |
| 2026-04-21 10:06 | 37.68708 | -1.35215 | 9020 ft | 285 kts | 347° |
| 2026-04-21 10:06 | 37.70692 | -1.35305 | 9662 ft | 289 kts | 13° |
| 2026-04-21 10:07 | 37.72501 | -1.34257 | 10394 ft | 289 kts | 41° |
| 2026-04-21 10:07 | 37.73700 | -1.32242 | 11080 ft | 291 kts | 65° |
| 2026-04-21 10:07 | 37.74505 | -1.29880 | 11697 ft | 296 kts | 68° |
| 2026-04-21 10:07 | 37.75266 | -1.27431 | 12331 ft | 302 kts | 69° |
| 2026-04-21 10:08 | 37.76035 | -1.24953 | 13039 ft | 305 kts | 68° |
| 2026-04-21 10:08 | 37.76823 | -1.22453 | 13743 ft | 308 kts | 68° |
| 2026-04-21 10:08 | 37.77632 | -1.19935 | 14420 ft | 312 kts | 68° |
| 2026-04-21 10:08 | 37.78460 | -1.17382 | 15099 ft | 316 kts | 68° |
| 2026-04-21 10:09 | 37.79299 | -1.14805 | 15800 ft | 319 kts | 68° |
| 2026-04-21 10:09 | 37.80221 | -1.12242 | 16469 ft | 322 kts | 57° |
| 2026-04-21 10:09 | 37.81725 | -1.10075 | 16803 ft | 337 kts | 43° |
| 2026-04-21 10:09 | 37.83505 | -1.07992 | 16937 ft | 359 kts | 41° |
| 2026-04-21 10:10 | 37.85405 | -1.05821 | 17101 ft | 378 kts | 41° |
| 2026-04-21 10:10 | 37.87397 | -1.03546 | 17437 ft | 391 kts | 41° |
| 2026-04-21 10:10 | 37.89422 | -1.01213 | 17995 ft | 396 kts | 41° |
| 2026-04-21 10:10 | 37.91461 | -0.98843 | 18630 ft | 399 kts | 42° |
| 2026-04-21 10:11 | 37.93505 | -0.96452 | 19257 ft | 402 kts | 42° |
| 2026-04-21 10:11 | 37.95571 | -0.94027 | 19818 ft | 406 kts | 42° |
| 2026-04-21 10:11 | 37.97652 | -0.91575 | 20358 ft | 411 kts | 42° |
| 2026-04-21 10:11 | 37.99750 | -0.89100 | 20905 ft | 413 kts | 42° |
| 2026-04-21 10:12 | 38.01864 | -0.86602 | 21412 ft | 418 kts | 42° |
| 2026-04-21 10:12 | 38.03997 | -0.84081 | 21946 ft | 421 kts | 42° |
| 2026-04-21 10:12 | 38.06144 | -0.81543 | 22481 ft | 423 kts | 41° |
| 2026-04-21 10:12 | 38.08308 | -0.78981 | 22967 ft | 427 kts | 42° |
| 2026-04-21 10:13 | 38.10487 | -0.76399 | 23434 ft | 430 kts | 41° |
| 2026-04-21 10:13 | 38.12687 | -0.73790 | 23867 ft | 434 kts | 41° |
| 2026-04-21 10:13 | 38.14906 | -0.71158 | 24299 ft | 438 kts | 41° |
| 2026-04-21 10:13 | 38.17135 | -0.68511 | 24763 ft | 440 kts | 42° |
| 2026-04-21 10:14 | 38.19374 | -0.65849 | 25263 ft | 441 kts | 42° |
| 2026-04-21 10:14 | 38.21616 | -0.63180 | 25737 ft | 442 kts | 42° |
| 2026-04-21 10:14 | 38.23868 | -0.60499 | 26111 ft | 446 kts | 42° |
| 2026-04-21 10:14 | 38.26155 | -0.57816 | 26469 ft | 449 kts | 38° |
| 2026-04-21 10:15 | 38.28802 | -0.55746 | 26821 ft | 447 kts | 20° |
| 2026-04-21 10:15 | 38.31693 | -0.54308 | 27272 ft | 447 kts | 19° |
| 2026-04-21 10:15 | 38.34608 | -0.52886 | 27635 ft | 450 kts | 19° |
| 2026-04-21 10:15 | 38.37536 | -0.51447 | 27967 ft | 453 kts | 19° |
| 2026-04-21 10:16 | 38.40442 | -0.49999 | 28310 ft | 456 kts | 19° |
| 2026-04-21 10:16 | 38.43395 | -0.48507 | 28685 ft | 457 kts | 19° |
| 2026-04-21 10:16 | 38.46352 | -0.46998 | 29024 ft | 459 kts | 20° |
| 2026-04-21 10:16 | 38.49324 | -0.45476 | 29348 ft | 461 kts | 20° |
| 2026-04-21 10:17 | 38.52305 | -0.43942 | 29655 ft | 463 kts | 20° |
| 2026-04-21 10:17 | 38.55299 | -0.42399 | 29956 ft | 465 kts | 20° |
| 2026-04-21 10:17 | 38.58306 | -0.40848 | 30249 ft | 467 kts | 20° |
| 2026-04-21 10:17 | 38.61324 | -0.39290 | 30536 ft | 469 kts | 20° |
| 2026-04-21 10:18 | 38.64360 | -0.37723 | 30779 ft | 472 kts | 20° |
| 2026-04-21 10:18 | 38.67408 | -0.36149 | 31079 ft | 473 kts | 20° |
| 2026-04-21 10:18 | 38.70453 | -0.34574 | 31446 ft | 472 kts | 20° |
| 2026-04-21 10:18 | 38.73489 | -0.33003 | 31825 ft | 470 kts | 19° |
| 2026-04-21 10:19 | 38.76521 | -0.31432 | 32161 ft | 470 kts | 19° |
| 2026-04-21 10:19 | 38.79555 | -0.29859 | 32445 ft | 471 kts | 19° |
| 2026-04-21 10:19 | 38.82588 | -0.28285 | 32751 ft | 471 kts | 19° |
| 2026-04-21 10:19 | 38.85619 | -0.26710 | 33086 ft | 470 kts | 19° |
| 2026-04-21 10:20 | 38.88649 | -0.25135 | 33425 ft | 469 kts | 19° |
| 2026-04-21 10:20 | 38.91665 | -0.23564 | 33716 ft | 469 kts | 19° |
| 2026-04-21 10:20 | 38.94693 | -0.21987 | 33980 ft | 469 kts | 19° |
| 2026-04-21 10:20 | 38.97718 | -0.20411 | 34261 ft | 469 kts | 19° |
| 2026-04-21 10:21 | 39.00737 | -0.18838 | 34548 ft | 468 kts | 19° |
| 2026-04-21 10:21 | 39.03755 | -0.17262 | 34802 ft | 468 kts | 19° |
| 2026-04-21 10:21 | 39.06769 | -0.15686 | 35062 ft | 468 kts | 19° |
| 2026-04-21 10:21 | 39.09780 | -0.14109 | 35309 ft | 468 kts | 19° |
| 2026-04-21 10:22 | 39.12797 | -0.12528 | 35553 ft | 467 kts | 19° |
| 2026-04-21 10:22 | 39.15806 | -0.10950 | 35826 ft | 466 kts | 19° |
| 2026-04-21 10:22 | 39.18811 | -0.09373 | 36055 ft | 466 kts | 19° |
| 2026-04-21 10:22 | 39.21815 | -0.07796 | 36277 ft | 467 kts | 19° |
| 2026-04-21 10:23 | 39.24820 | -0.06215 | 36517 ft | 466 kts | 19° |
| 2026-04-21 10:23 | 39.27821 | -0.04637 | 36752 ft | 465 kts | 19° |
| 2026-04-21 10:23 | 39.30811 | -0.03064 | 37083 ft | 461 kts | 19° |
| 2026-04-21 10:23 | 39.33764 | -0.01507 | 37480 ft | 456 kts | 19° |
| 2026-04-21 10:24 | 39.36721 | -0.00061 | 37718 ft | 453 kts | 14° |
| 2026-04-21 10:24 | 39.39731 | 0.01125 | 37857 ft | 451 kts | 12° |
| 2026-04-21 10:24 | 39.42706 | 0.02191 | 37913 ft | 438 kts | 11° |
| 2026-04-21 10:25 | 39.48581 | 0.04241 | 37946 ft | 440 kts | 11° |
| 2026-04-21 10:25 | 39.54493 | 0.06362 | 37957 ft | 448 kts | 12° |
| 2026-04-21 10:26 | 39.60530 | 0.08588 | 37958 ft | 453 kts | 12° |
| 2026-04-21 10:26 | 39.66588 | 0.10844 | 37937 ft | 451 kts | 12° |
| 2026-04-21 10:27 | 39.72557 | 0.13073 | 37945 ft | 443 kts | 12° |
| 2026-04-21 10:27 | 39.78486 | 0.15283 | 37963 ft | 443 kts | 12° |
| 2026-04-21 10:28 | 39.84417 | 0.17496 | 37953 ft | 444 kts | 12° |
| 2026-04-21 10:28 | 39.90356 | 0.19718 | 37953 ft | 444 kts | 12° |
| 2026-04-21 10:29 | 39.95301 | 0.21573 | 37951 ft | 446 kts | 12° |
| 2026-04-21 10:29 | 40.01272 | 0.23812 | 37961 ft | 447 kts | 12° |
| 2026-04-21 10:30 | 40.07254 | 0.26055 | 37962 ft | 448 kts | 12° |
| 2026-04-21 10:30 | 40.13245 | 0.28307 | 37960 ft | 448 kts | 12° |
| 2026-04-21 10:31 | 40.19244 | 0.30569 | 37963 ft | 448 kts | 12° |
| 2026-04-21 10:31 | 40.25244 | 0.32833 | 37962 ft | 449 kts | 12° |
| 2026-04-21 10:32 | 40.31242 | 0.35101 | 37967 ft | 449 kts | 12° |
| 2026-04-21 10:32 | 40.37244 | 0.37376 | 37966 ft | 449 kts | 12° |
| 2026-04-21 10:33 | 40.43235 | 0.39661 | 37971 ft | 448 kts | 12° |
| 2026-04-21 10:33 | 40.49218 | 0.41939 | 37964 ft | 447 kts | 12° |
| 2026-04-21 10:34 | 40.55189 | 0.44224 | 37957 ft | 447 kts | 12° |
| 2026-04-21 10:34 | 40.61154 | 0.46509 | 37970 ft | 446 kts | 12° |
| 2026-04-21 10:35 | 40.67107 | 0.48792 | 37971 ft | 445 kts | 12° |
| 2026-04-21 10:35 | 40.73041 | 0.51072 | 37963 ft | 444 kts | 12° |
| 2026-04-21 10:36 | 40.78966 | 0.53354 | 37965 ft | 443 kts | 12° |
| 2026-04-21 10:36 | 40.84875 | 0.55632 | 37956 ft | 442 kts | 12° |
| 2026-04-21 10:37 | 40.90785 | 0.57918 | 37961 ft | 442 kts | 12° |
| 2026-04-21 10:37 | 40.96690 | 0.60208 | 37957 ft | 442 kts | 12° |
| 2026-04-21 10:38 | 41.02588 | 0.62496 | 37967 ft | 441 kts | 12° |
| 2026-04-21 10:38 | 41.08472 | 0.64779 | 37964 ft | 441 kts | 12° |
| 2026-04-21 10:39 | 41.14362 | 0.67072 | 37971 ft | 441 kts | 12° |
| 2026-04-21 10:39 | 41.20250 | 0.69363 | 37958 ft | 441 kts | 12° |
| 2026-04-21 10:40 | 41.26139 | 0.71658 | 37967 ft | 441 kts | 12° |
| 2026-04-21 10:40 | 41.32032 | 0.73955 | 37972 ft | 442 kts | 12° |
| 2026-04-21 10:41 | 41.37892 | 0.76251 | 37955 ft | 442 kts | 12° |
| 2026-04-21 10:41 | 41.43795 | 0.78566 | 37947 ft | 442 kts | 12° |
| 2026-04-21 10:42 | 41.49702 | 0.80890 | 37956 ft | 443 kts | 12° |
| 2026-04-21 10:42 | 41.55650 | 0.83227 | 37955 ft | 443 kts | 12° |
| 2026-04-21 10:43 | 41.61531 | 0.85547 | 37955 ft | 444 kts | 12° |
| 2026-04-21 10:43 | 41.67458 | 0.87884 | 37947 ft | 444 kts | 12° |
| 2026-04-21 10:44 | 41.73378 | 0.90235 | 37948 ft | 444 kts | 12° |
| 2026-04-21 10:44 | 41.79293 | 0.92581 | 37954 ft | 443 kts | 12° |
| 2026-04-21 10:45 | 41.85199 | 0.94927 | 37951 ft | 442 kts | 12° |
| 2026-04-21 10:45 | 41.91100 | 0.97277 | 37942 ft | 442 kts | 12° |
| 2026-04-21 10:46 | 41.96986 | 0.99625 | 37959 ft | 441 kts | 12° |
| 2026-04-21 10:46 | 42.02866 | 1.01976 | 37955 ft | 440 kts | 12° |
| 2026-04-21 10:47 | 42.08730 | 1.04324 | 37960 ft | 439 kts | 12° |
| 2026-04-21 10:47 | 42.14633 | 1.06264 | 37955 ft | 432 kts | 0° |
| 2026-04-21 10:48 | 42.20552 | 1.06080 | 37988 ft | 424 kts | 350° |
| 2026-04-21 10:48 | 42.26430 | 1.05327 | 37989 ft | 424 kts | 350° |
| 2026-04-21 10:49 | 42.32311 | 1.04635 | 37958 ft | 425 kts | 350° |
| 2026-04-21 10:49 | 42.38179 | 1.03986 | 37979 ft | 424 kts | 350° |
| 2026-04-21 10:50 | 42.44082 | 1.03337 | 37964 ft | 425 kts | 351° |
| 2026-04-21 10:50 | 42.49970 | 1.02698 | 37993 ft | 424 kts | 350° |
| 2026-04-21 10:51 | 42.55859 | 1.02059 | 37963 ft | 425 kts | 350° |
| 2026-04-21 10:51 | 42.61742 | 1.01421 | 37979 ft | 424 kts | 350° |
| 2026-04-21 10:52 | 42.67621 | 1.00780 | 37967 ft | 424 kts | 350° |
| 2026-04-21 10:52 | 42.73496 | 1.00138 | 37980 ft | 424 kts | 350° |
| 2026-04-21 10:53 | 42.79375 | 0.99497 | 37965 ft | 424 kts | 351° |
| 2026-04-21 10:53 | 42.85263 | 0.98852 | 37965 ft | 425 kts | 350° |
| 2026-04-21 10:54 | 42.91155 | 0.98204 | 37955 ft | 424 kts | 350° |
| 2026-04-21 10:54 | 42.97035 | 0.97557 | 37936 ft | 424 kts | 350° |
| 2026-04-21 10:55 | 43.02910 | 0.96913 | 37941 ft | 423 kts | 350° |
| 2026-04-21 10:55 | 43.08781 | 0.96263 | 37929 ft | 423 kts | 350° |
| 2026-04-21 10:56 | 43.14641 | 0.95614 | 37937 ft | 421 kts | 350° |
| 2026-04-21 10:56 | 43.20438 | 0.94970 | 37923 ft | 421 kts | 350° |
| 2026-04-21 10:57 | 43.26268 | 0.94324 | 37924 ft | 420 kts | 350° |
| 2026-04-21 10:57 | 43.32094 | 0.93676 | 37923 ft | 420 kts | 350° |
| 2026-04-21 10:58 | 43.37914 | 0.93026 | 37916 ft | 419 kts | 350° |
| 2026-04-21 10:58 | 43.43725 | 0.92382 | 37914 ft | 418 kts | 350° |
| 2026-04-21 10:59 | 43.49521 | 0.91731 | 37919 ft | 418 kts | 350° |
| 2026-04-21 10:59 | 43.55321 | 0.91079 | 37918 ft | 418 kts | 350° |
| 2026-04-21 11:00 | 43.61123 | 0.90426 | 37915 ft | 419 kts | 350° |
| 2026-04-21 11:00 | 43.66939 | 0.89772 | 37916 ft | 419 kts | 350° |
| 2026-04-21 11:01 | 43.72758 | 0.89118 | 37914 ft | 420 kts | 350° |
| 2026-04-21 11:01 | 43.78579 | 0.88459 | 37918 ft | 420 kts | 350° |
| 2026-04-21 11:02 | 43.87304 | 0.87386 | 37910 ft | 417 kts | 345° |
| 2026-04-21 11:02 | 43.92717 | 0.84927 | 37923 ft | 407 kts | 330° |
| 2026-04-21 11:03 | 43.97833 | 0.81564 | 37919 ft | 407 kts | 330° |
| 2026-04-21 11:03 | 44.02958 | 0.78192 | 37915 ft | 408 kts | 330° |
| 2026-04-21 11:04 | 44.08096 | 0.74847 | 37918 ft | 408 kts | 330° |
| 2026-04-21 11:04 | 44.13242 | 0.71512 | 37913 ft | 407 kts | 330° |
| 2026-04-21 11:05 | 44.18374 | 0.68181 | 37913 ft | 407 kts | 330° |
| 2026-04-21 11:05 | 44.23508 | 0.64840 | 37921 ft | 407 kts | 330° |
| 2026-04-21 11:06 | 44.28637 | 0.61495 | 37913 ft | 407 kts | 330° |
| 2026-04-21 11:06 | 44.33763 | 0.58142 | 37922 ft | 407 kts | 330° |
| 2026-04-21 11:07 | 44.38884 | 0.54792 | 37917 ft | 407 kts | 330° |
| 2026-04-21 11:07 | 44.44010 | 0.51431 | 37916 ft | 407 kts | 330° |
| 2026-04-21 11:08 | 44.49128 | 0.48047 | 37913 ft | 407 kts | 330° |
| 2026-04-21 11:08 | 44.54247 | 0.44646 | 37903 ft | 407 kts | 330° |
| 2026-04-21 11:09 | 44.59363 | 0.41243 | 37906 ft | 407 kts | 330° |
| 2026-04-21 11:09 | 44.64475 | 0.37837 | 37913 ft | 407 kts | 330° |
| 2026-04-21 11:10 | 44.69592 | 0.34424 | 37915 ft | 407 kts | 330° |
| 2026-04-21 11:10 | 44.74704 | 0.31001 | 37916 ft | 406 kts | 330° |
| 2026-04-21 11:11 | 44.79806 | 0.27582 | 37916 ft | 406 kts | 330° |
| 2026-04-21 11:11 | 44.84907 | 0.24154 | 37921 ft | 406 kts | 330° |
| 2026-04-21 11:12 | 44.89144 | 0.21302 | 37915 ft | 406 kts | 330° |
| 2026-04-21 11:12 | 44.94240 | 0.17866 | 37914 ft | 406 kts | 330° |
| 2026-04-21 11:13 | 44.99334 | 0.14427 | 37923 ft | 405 kts | 330° |
| 2026-04-21 11:13 | 45.05245 | 0.10427 | 37927 ft | 405 kts | 330° |
| 2026-04-21 11:14 | 45.09504 | 0.07542 | 37924 ft | 405 kts | 330° |
| 2026-04-21 11:14 | 45.14581 | 0.04097 | 37936 ft | 404 kts | 330° |
| 2026-04-21 11:15 | 45.19653 | 0.00648 | 37937 ft | 404 kts | 330° |
| 2026-04-21 11:15 | 45.24726 | -0.02808 | 37927 ft | 405 kts | 330° |
| 2026-04-21 11:16 | 45.29856 | -0.06314 | 37954 ft | 413 kts | 330° |
| 2026-04-21 11:16 | 45.35050 | -0.09873 | 37962 ft | 420 kts | 330° |
| 2026-04-21 11:17 | 45.40362 | -0.13511 | 37957 ft | 422 kts | 330° |
| 2026-04-21 11:17 | 45.45658 | -0.17147 | 37950 ft | 420 kts | 330° |
| 2026-04-21 11:18 | 45.50825 | -0.20704 | 37951 ft | 412 kts | 330° |
| 2026-04-21 11:18 | 45.55986 | -0.24269 | 37965 ft | 413 kts | 330° |
| 2026-04-21 11:19 | 45.61163 | -0.27848 | 37969 ft | 414 kts | 330° |
| 2026-04-21 11:19 | 45.66302 | -0.31566 | 37959 ft | 412 kts | 323° |
| 2026-04-21 11:20 | 45.70828 | -0.36502 | 37959 ft | 409 kts | 317° |
| 2026-04-21 11:20 | 45.75265 | -0.41587 | 37970 ft | 409 kts | 317° |
| 2026-04-21 11:21 | 45.79718 | -0.46662 | 37964 ft | 409 kts | 318° |
| 2026-04-21 11:21 | 45.84182 | -0.51728 | 37978 ft | 409 kts | 318° |
| 2026-04-21 11:22 | 45.88650 | -0.56803 | 37971 ft | 409 kts | 318° |
| 2026-04-21 11:22 | 45.93115 | -0.61880 | 37967 ft | 409 kts | 318° |
| 2026-04-21 11:23 | 45.97570 | -0.66959 | 37984 ft | 409 kts | 317° |
| 2026-04-21 11:23 | 46.02029 | -0.72053 | 37983 ft | 410 kts | 317° |
| 2026-04-21 11:24 | 46.06482 | -0.77149 | 37990 ft | 408 kts | 318° |
| 2026-04-21 11:24 | 46.10921 | -0.82245 | 37988 ft | 407 kts | 318° |
| 2026-04-21 11:25 | 46.15345 | -0.87332 | 37989 ft | 406 kts | 317° |
| 2026-04-21 11:25 | 46.19750 | -0.92408 | 37999 ft | 404 kts | 317° |
| 2026-04-21 11:26 | 46.24138 | -0.97469 | 37997 ft | 403 kts | 317° |
| 2026-04-21 11:26 | 46.28509 | -1.02518 | 38001 ft | 402 kts | 317° |
| 2026-04-21 11:27 | 46.32878 | -1.07575 | 37996 ft | 402 kts | 317° |
| 2026-04-21 11:27 | 46.37216 | -1.12608 | 38001 ft | 403 kts | 317° |
| 2026-04-21 11:28 | 46.41615 | -1.17722 | 38002 ft | 403 kts | 317° |
| 2026-04-21 11:28 | 46.45984 | -1.22810 | 38010 ft | 403 kts | 317° |
| 2026-04-21 11:29 | 46.50324 | -1.27877 | 38013 ft | 404 kts | 317° |
| 2026-04-21 11:29 | 46.54695 | -1.32994 | 38021 ft | 404 kts | 317° |
| 2026-04-21 11:30 | 46.59076 | -1.38108 | 38018 ft | 405 kts | 320° |
| 2026-04-21 11:30 | 46.64031 | -1.42117 | 38032 ft | 411 kts | 330° |
| 2026-04-21 11:31 | 46.69199 | -1.45681 | 38025 ft | 412 kts | 330° |
| 2026-04-21 11:31 | 46.74363 | -1.49315 | 38021 ft | 412 kts | 330° |
| 2026-04-21 11:32 | 46.79526 | -1.52979 | 38027 ft | 413 kts | 330° |
| 2026-04-21 11:32 | 46.84700 | -1.56632 | 38024 ft | 414 kts | 333° |
| 2026-04-21 11:33 | 46.90322 | -1.58783 | 38025 ft | 424 kts | 350° |
| 2026-04-21 11:33 | 46.96222 | -1.59351 | 38033 ft | 425 kts | 352° |
| 2026-04-21 11:34 | 47.02119 | -1.59875 | 38040 ft | 424 kts | 351° |
| 2026-04-21 11:34 | 47.07997 | -1.60459 | 38044 ft | 423 kts | 351° |
| 2026-04-21 11:35 | 47.13865 | -1.61068 | 38043 ft | 422 kts | 351° |
| 2026-04-21 11:35 | 47.19703 | -1.61742 | 38046 ft | 420 kts | 350° |
| 2026-04-21 11:36 | 47.25515 | -1.62551 | 38050 ft | 419 kts | 349° |
| 2026-04-21 11:36 | 47.31309 | -1.63343 | 38041 ft | 418 kts | 350° |
| 2026-04-21 11:37 | 47.37095 | -1.64131 | 38054 ft | 417 kts | 350° |
| 2026-04-21 11:37 | 47.42865 | -1.64958 | 38055 ft | 416 kts | 349° |
| 2026-04-21 11:38 | 47.48633 | -1.65780 | 38055 ft | 416 kts | 349° |
| 2026-04-21 11:38 | 47.54355 | -1.66600 | 38071 ft | 416 kts | 349° |
| 2026-04-21 11:39 | 47.60124 | -1.67427 | 38065 ft | 416 kts | 349° |
| 2026-04-21 11:39 | 47.65893 | -1.68257 | 38075 ft | 416 kts | 349° |
| 2026-04-21 11:40 | 47.71662 | -1.69088 | 38082 ft | 416 kts | 349° |
| 2026-04-21 11:40 | 47.77427 | -1.69920 | 38084 ft | 416 kts | 350° |
| 2026-04-21 11:41 | 47.83198 | -1.70753 | 38092 ft | 417 kts | 349° |
| 2026-04-21 11:41 | 47.88973 | -1.71590 | 38089 ft | 417 kts | 350° |
| 2026-04-21 11:42 | 47.94746 | -1.72429 | 38107 ft | 417 kts | 350° |
| 2026-04-21 11:42 | 48.00526 | -1.73269 | 38106 ft | 417 kts | 349° |
| 2026-04-21 11:43 | 48.06315 | -1.74113 | 38100 ft | 418 kts | 350° |
| 2026-04-21 11:43 | 48.12156 | -1.74420 | 38104 ft | 421 kts | 355° |
| 2026-04-21 11:44 | 48.18018 | -1.74413 | 38105 ft | 421 kts | 355° |
| 2026-04-21 11:44 | 48.23881 | -1.74418 | 38098 ft | 421 kts | 355° |
| 2026-04-21 11:45 | 48.29739 | -1.74466 | 38066 ft | 422 kts | 355° |
| 2026-04-21 11:45 | 48.32695 | -1.74501 | 37648 ft | 425 kts | 354° |
| 2026-04-21 11:45 | 48.35636 | -1.74535 | 37293 ft | 420 kts | 354° |
| 2026-04-21 11:46 | 48.38542 | -1.74568 | 36905 ft | 416 kts | 354° |
| 2026-04-21 11:46 | 48.41424 | -1.74602 | 36533 ft | 411 kts | 354° |
| 2026-04-21 11:46 | 48.44266 | -1.74637 | 36157 ft | 408 kts | 354° |
| 2026-04-21 11:46 | 48.47094 | -1.74668 | 35764 ft | 405 kts | 354° |
| 2026-04-21 11:47 | 48.49901 | -1.74700 | 35380 ft | 402 kts | 354° |
| 2026-04-21 11:47 | 48.52647 | -1.74733 | 35013 ft | 399 kts | 354° |
| 2026-04-21 11:47 | 48.55412 | -1.74767 | 34635 ft | 396 kts | 354° |
| 2026-04-21 11:47 | 48.58156 | -1.74800 | 34261 ft | 393 kts | 354° |
| 2026-04-21 11:48 | 48.60880 | -1.74834 | 33894 ft | 390 kts | 354° |
| 2026-04-21 11:48 | 48.63580 | -1.74868 | 33530 ft | 387 kts | 354° |
| 2026-04-21 11:48 | 48.66261 | -1.74900 | 33167 ft | 384 kts | 354° |
| 2026-04-21 11:48 | 48.68956 | -1.74932 | 32803 ft | 381 kts | 354° |
| 2026-04-21 11:49 | 48.71599 | -1.74963 | 32443 ft | 378 kts | 353° |
| 2026-04-21 11:49 | 48.74222 | -1.74995 | 32089 ft | 376 kts | 353° |
| 2026-04-21 11:49 | 48.76796 | -1.75028 | 31741 ft | 373 kts | 353° |
| 2026-04-21 11:49 | 48.79383 | -1.75058 | 31390 ft | 371 kts | 353° |
| 2026-04-21 11:50 | 48.81954 | -1.75088 | 31047 ft | 368 kts | 353° |
| 2026-04-21 11:50 | 48.84506 | -1.75119 | 30702 ft | 366 kts | 353° |
| 2026-04-21 11:50 | 48.87041 | -1.75150 | 30360 ft | 363 kts | 353° |
| 2026-04-21 11:50 | 48.89556 | -1.75180 | 30031 ft | 360 kts | 352° |
| 2026-04-21 11:51 | 48.92083 | -1.75195 | 29730 ft | 356 kts | 353° |
| 2026-04-21 11:51 | 48.94506 | -1.75128 | 29486 ft | 351 kts | 354° |
| 2026-04-21 11:51 | 48.96973 | -1.75024 | 29136 ft | 349 kts | 354° |
| 2026-04-21 11:51 | 48.99360 | -1.74918 | 28814 ft | 346 kts | 354° |
| 2026-04-21 11:52 | 49.01756 | -1.74814 | 28473 ft | 343 kts | 354° |
| 2026-04-21 11:52 | 49.04137 | -1.74715 | 28136 ft | 340 kts | 354° |
| 2026-04-21 11:52 | 49.06496 | -1.74621 | 27801 ft | 338 kts | 353° |
| 2026-04-21 11:52 | 49.08839 | -1.74529 | 27466 ft | 335 kts | 353° |
| 2026-04-21 11:53 | 49.11162 | -1.74439 | 27138 ft | 333 kts | 353° |
| 2026-04-21 11:53 | 49.13468 | -1.74352 | 26808 ft | 330 kts | 353° |
| 2026-04-21 11:53 | 49.15757 | -1.74264 | 26480 ft | 328 kts | 353° |
| 2026-04-21 11:53 | 49.18032 | -1.74182 | 26153 ft | 325 kts | 353° |
| 2026-04-21 11:54 | 49.20286 | -1.74098 | 25832 ft | 323 kts | 353° |
| 2026-04-21 11:54 | 49.22527 | -1.74012 | 25510 ft | 321 kts | 353° |
| 2026-04-21 11:54 | 49.24751 | -1.73928 | 25194 ft | 319 kts | 353° |
| 2026-04-21 11:54 | 49.26960 | -1.73843 | 24877 ft | 316 kts | 353° |
| 2026-04-21 11:55 | 49.29153 | -1.73760 | 24565 ft | 314 kts | 353° |
| 2026-04-21 11:55 | 49.31329 | -1.73677 | 24252 ft | 312 kts | 353° |
| 2026-04-21 11:55 | 49.33486 | -1.73595 | 23938 ft | 309 kts | 353° |
| 2026-04-21 11:55 | 49.35630 | -1.73514 | 23633 ft | 307 kts | 353° |
| 2026-04-21 11:56 | 49.37755 | -1.73433 | 23327 ft | 305 kts | 353° |
| 2026-04-21 11:56 | 49.39867 | -1.73353 | 23027 ft | 302 kts | 353° |
| 2026-04-21 11:56 | 49.41962 | -1.73274 | 22717 ft | 300 kts | 353° |
| 2026-04-21 11:56 | 49.44046 | -1.73197 | 22420 ft | 298 kts | 353° |
| 2026-04-21 11:57 | 49.46114 | -1.73118 | 22111 ft | 296 kts | 353° |
| 2026-04-21 11:57 | 49.48166 | -1.73039 | 21815 ft | 294 kts | 354° |
| 2026-04-21 11:57 | 49.50206 | -1.72960 | 21517 ft | 292 kts | 354° |
| 2026-04-21 11:57 | 49.52230 | -1.72883 | 21225 ft | 290 kts | 354° |
| 2026-04-21 11:58 | 49.54242 | -1.72809 | 20941 ft | 288 kts | 354° |
| 2026-04-21 11:58 | 49.56239 | -1.72733 | 20644 ft | 286 kts | 354° |
| 2026-04-21 11:58 | 49.58222 | -1.72655 | 20356 ft | 284 kts | 354° |
| 2026-04-21 11:58 | 49.60184 | -1.72714 | 20095 ft | 279 kts | 346° |
| 2026-04-21 11:59 | 49.61445 | -1.73038 | 20020 ft | 278 kts | 344° |
| 2026-04-21 11:59 | 49.63444 | -1.73637 | 19743 ft | 309 kts | 344° |
| 2026-04-21 11:59 | 49.65627 | -1.74309 | 19413 ft | 324 kts | 344° |
| 2026-04-21 11:59 | 49.67846 | -1.74978 | 19055 ft | 325 kts | 345° |
| 2026-04-21 12:00 | 49.70067 | -1.75638 | 18699 ft | 324 kts | 345° |
| 2026-04-21 12:00 | 49.72276 | -1.76291 | 18360 ft | 323 kts | 345° |
| 2026-04-21 12:00 | 49.74480 | -1.76940 | 18017 ft | 322 kts | 346° |
| 2026-04-21 12:00 | 49.76684 | -1.77587 | 17676 ft | 322 kts | 346° |
| 2026-04-21 12:01 | 49.78880 | -1.78235 | 17333 ft | 321 kts | 346° |
| 2026-04-21 12:01 | 49.81072 | -1.78883 | 16992 ft | 320 kts | 346° |
| 2026-04-21 12:01 | 49.83260 | -1.79531 | 16656 ft | 320 kts | 346° |
| 2026-04-21 12:01 | 49.85446 | -1.80178 | 16313 ft | 319 kts | 346° |
| 2026-04-21 12:02 | 49.87617 | -1.80821 | 15974 ft | 318 kts | 347° |
| 2026-04-21 12:02 | 49.91959 | -1.82109 | 15291 ft | 317 kts | 347° |
| 2026-04-21 12:02 | 49.94126 | -1.82750 | 14947 ft | 317 kts | 347° |
| 2026-04-21 12:03 | 49.96293 | -1.83394 | 14606 ft | 317 kts | 347° |
| 2026-04-21 12:03 | 49.98459 | -1.84039 | 14272 ft | 317 kts | 348° |
| 2026-04-21 12:03 | 50.00642 | -1.84503 | 13910 ft | 318 kts | 358° |
| 2026-04-21 12:03 | 50.02858 | -1.84259 | 13586 ft | 319 kts | 5° |
| 2026-04-21 12:04 | 50.05068 | -1.83885 | 13232 ft | 320 kts | 5° |
| 2026-04-21 12:04 | 50.07273 | -1.83532 | 12887 ft | 317 kts | 5° |
| 2026-04-21 12:04 | 50.09451 | -1.83215 | 12561 ft | 312 kts | 4° |
| 2026-04-21 12:04 | 50.11601 | -1.82915 | 12232 ft | 309 kts | 5° |
| 2026-04-21 12:05 | 50.13731 | -1.82615 | 11901 ft | 306 kts | 6° |
| 2026-04-21 12:05 | 50.15815 | -1.81980 | 11518 ft | 305 kts | 14° |
| 2026-04-21 12:05 | 50.17836 | -1.81070 | 11182 ft | 302 kts | 17° |
| 2026-04-21 12:05 | 50.19838 | -1.80111 | 10854 ft | 299 kts | 17° |
| 2026-04-21 12:06 | 50.21813 | -1.79168 | 10536 ft | 296 kts | 17° |
| 2026-04-21 12:06 | 50.23772 | -1.78249 | 10329 ft | 290 kts | 18° |
| 2026-04-21 12:06 | 50.25686 | -1.77364 | 10115 ft | 285 kts | 17° |
| 2026-04-21 12:06 | 50.27579 | -1.76500 | 9820 ft | 282 kts | 18° |
| 2026-04-21 12:07 | 50.29453 | -1.75649 | 9541 ft | 279 kts | 18° |
| 2026-04-21 12:07 | 50.31326 | -1.74800 | 9063 ft | 281 kts | 18° |
| 2026-04-21 12:07 | 50.33189 | -1.73960 | 8703 ft | 278 kts | 18° |
| 2026-04-21 12:07 | 50.35023 | -1.73132 | 8393 ft | 278 kts | 18° |
| 2026-04-21 12:08 | 50.36895 | -1.72286 | 8082 ft | 276 kts | 18° |
| 2026-04-21 12:08 | 50.38737 | -1.71456 | 7787 ft | 275 kts | 19° |
| 2026-04-21 12:08 | 50.40565 | -1.70629 | 7482 ft | 272 kts | 19° |
| 2026-04-21 12:08 | 50.42371 | -1.69812 | 7304 ft | 266 kts | 19° |
| 2026-04-21 12:09 | 50.44130 | -1.69018 | 7167 ft | 260 kts | 19° |
| 2026-04-21 12:09 | 50.45878 | -1.68317 | 7041 ft | 262 kts | 10° |
| 2026-04-21 12:09 | 50.47702 | -1.68675 | 6927 ft | 269 kts | 342° |
| 2026-04-21 12:09 | 50.49398 | -1.69933 | 6835 ft | 272 kts | 336° |
| 2026-04-21 12:10 | 50.51110 | -1.71348 | 6393 ft | 286 kts | 336° |
| 2026-04-21 12:10 | 50.52871 | -1.72836 | 6017 ft | 287 kts | 335° |
| 2026-04-21 12:10 | 50.54607 | -1.74358 | 5715 ft | 286 kts | 335° |
| 2026-04-21 12:10 | 50.56345 | -1.75822 | 5403 ft | 282 kts | 336° |
| 2026-04-21 12:11 | 50.58045 | -1.77297 | 5134 ft | 277 kts | 335° |
| 2026-04-21 12:11 | 50.59701 | -1.78760 | 4868 ft | 269 kts | 335° |
| 2026-04-21 12:11 | 50.61296 | -1.80126 | 4570 ft | 262 kts | 338° |
| 2026-04-21 12:11 | 50.62887 | -1.81521 | 4258 ft | 261 kts | 335° |
| 2026-04-21 12:12 | 50.64413 | -1.83089 | 3953 ft | 266 kts | 320° |
| 2026-04-21 12:12 | 50.65420 | -1.85567 | 3651 ft | 276 kts | 290° |
| 2026-04-21 12:12 | 50.65582 | -1.88559 | 3439 ft | 277 kts | 262° |
| 2026-04-21 12:12 | 50.65168 | -1.91501 | 3277 ft | 272 kts | 256° |
| 2026-04-21 12:13 | 50.64695 | -1.94341 | 3128 ft | 264 kts | 259° |
| 2026-04-21 12:13 | 50.64710 | -1.97117 | 2985 ft | 248 kts | 290° |
| 2026-04-21 12:13 | 50.65543 | -1.99316 | 2792 ft | 225 kts | 324° |
| 2026-04-21 12:13 | 50.66828 | -2.00467 | 2615 ft | 205 kts | 343° |
| 2026-04-21 12:14 | 50.68127 | -2.01275 | 2403 ft | 197 kts | 345° |
| 2026-04-21 12:14 | 50.69387 | -2.02011 | 2185 ft | 190 kts | 346° |
| 2026-04-21 12:14 | 50.70594 | -2.02692 | 1990 ft | 180 kts | 345° |
| 2026-04-21 12:14 | 50.71755 | -2.03344 | 1784 ft | 173 kts | 348° |
| 2026-04-21 12:15 | 50.72903 | -2.03554 | 1598 ft | 161 kts | 8° |
| 2026-04-21 12:15 | 50.73848 | -2.02855 | 1500 ft | 150 kts | 46° |
| 2026-04-21 12:15 | 50.74591 | -2.01666 | 1481 ft | 154 kts | 45° |
| 2026-04-21 12:15 | 50.75228 | -2.00328 | 1459 ft | 153 kts | 69° |
| 2026-04-21 12:16 | 50.75559 | -1.98737 | 1480 ft | 154 kts | 69° |
| 2026-04-21 12:16 | 50.75859 | -1.97175 | 1506 ft | 145 kts | 72° |
| 2026-04-21 12:16 | 50.76120 | -1.95633 | 1398 ft | 145 kts | 73° |
| 2026-04-21 12:16 | 50.76375 | -1.94093 | 1204 ft | 144 kts | 73° |
| 2026-04-21 12:17 | 50.76624 | -1.92584 | 1028 ft | 141 kts | 73° |
| 2026-04-21 12:17 | 50.76874 | -1.91080 | 831 ft | 142 kts | 73° |
| 2026-04-21 12:17 | 50.77124 | -1.89569 | 638 ft | 142 kts | 73° |
| 2026-04-21 12:17 | 50.77374 | -1.88063 | 442 ft | 142 kts | 72° |
| 2026-04-21 12:18 | 50.77624 | -1.86558 | 262 ft | 141 kts | 73° |
| 2026-04-21 12:18 | 50.77872 | -1.85065 | 69 ft | 141 kts | 73° |
| 2026-04-21 12:18 | 50.78101 | -1.83677 | 40 ft | 109 kts | 74° |
| 2026-04-21 12:18 | 50.78193 | -1.83063 | 43 ft | 18 kts | 111° |
| 2026-04-21 12:19 | 50.78125 | -1.83088 | 45 ft | 11 kts | 239° |
| 2026-04-21 12:19 | 50.78083 | -1.83186 | 45 ft | 11 kts | 234° |
| 2026-04-21 12:19 | 50.78044 | -1.83289 | 45 ft | 12 kts | 244° |
| 2026-04-21 12:19 | 50.78004 | -1.83414 | 45 ft | 14 kts | 242° |
| 2026-04-21 12:20 | 50.77921 | -1.83489 | 45 ft | 15 kts | 173° |
| 2026-04-21 12:20 | 50.77822 | -1.83470 | 45 ft | 13 kts | 176° |
| 2026-04-21 12:20 | 50.77746 | -1.83463 | 43 ft | 8 kts | 174° |
| 2026-04-21 12:20 | 50.77726 | -1.83416 | 45 ft | 5 kts | 87° |
| 2026-04-21 12:21 | 50.77728 | -1.83377 | 45 ft | 2 kts | 86° |
| 2026-04-21 12:21 | 50.77728 | -1.83370 | 45 ft | 0 kts | 86° |